sensor_id;sensor_type;location;lat;lon;timestamp;temperature;humidity
1447;DHT22;717;51.522;7.266;2022-07-06T00:02:04;21.90;87.60
1447;DHT22;717;51.522;7.266;2022-07-06T00:04:31;21.80;87.60
1447;DHT22;717;51.522;7.266;2022-07-06T00:06:58;21.80;87.70
1447;DHT22;717;51.522;7.266;2022-07-06T00:09:25;21.80;87.80
1447;DHT22;717;51.522;7.266;2022-07-06T00:11:55;21.70;87.60
1447;DHT22;717;51.522;7.266;2022-07-06T00:14:22;21.70;87.70
1447;DHT22;717;51.522;7.266;2022-07-06T00:16:50;21.70;87.50
1447;DHT22;717;51.522;7.266;2022-07-06T00:19:17;21.60;87.50
1447;DHT22;717;51.522;7.266;2022-07-06T00:21:43;21.60;87.50
1447;DHT22;717;51.522;7.266;2022-07-06T00:24:10;21.60;87.30
1447;DHT22;717;51.522;7.266;2022-07-06T00:26:37;21.60;87.20
1447;DHT22;717;51.522;7.266;2022-07-06T00:29:03;21.60;87.20
1447;DHT22;717;51.522;7.266;2022-07-06T00:31:30;21.60;87.20
1447;DHT22;717;51.522;7.266;2022-07-06T00:33:58;21.60;87.20
1447;DHT22;717;51.522;7.266;2022-07-06T00:36:25;21.60;87.20
1447;DHT22;717;51.522;7.266;2022-07-06T00:38:52;21.50;87.20
1447;DHT22;717;51.522;7.266;2022-07-06T00:41:19;21.60;87.20
1447;DHT22;717;51.522;7.266;2022-07-06T00:43:47;21.50;87.20
1447;DHT22;717;51.522;7.266;2022-07-06T00:46:14;21.50;87.10
1447;DHT22;717;51.522;7.266;2022-07-06T00:48:41;21.50;87.00
1447;DHT22;717;51.522;7.266;2022-07-06T00:51:10;21.50;86.90
1447;DHT22;717;51.522;7.266;2022-07-06T00:53:37;21.40;86.80
1447;DHT22;717;51.522;7.266;2022-07-06T00:56:04;21.40;87.10
1447;DHT22;717;51.522;7.266;2022-07-06T00:58:31;21.30;86.90
1447;DHT22;717;51.522;7.266;2022-07-06T01:00:58;21.30;87.00
1447;DHT22;717;51.522;7.266;2022-07-06T01:03:24;21.30;87.00
1447;DHT22;717;51.522;7.266;2022-07-06T01:05:51;21.30;87.20
1447;DHT22;717;51.522;7.266;2022-07-06T01:08:19;21.20;87.30
1447;DHT22;717;51.522;7.266;2022-07-06T01:10:46;21.20;87.30
1447;DHT22;717;51.522;7.266;2022-07-06T01:13:13;21.20;87.50
1447;DHT22;717;51.522;7.266;2022-07-06T01:15:40;21.30;87.50
1447;DHT22;717;51.522;7.266;2022-07-06T01:18:09;21.30;87.70
1447;DHT22;717;51.522;7.266;2022-07-06T01:20:38;21.30;87.60
1447;DHT22;717;51.522;7.266;2022-07-06T01:23:04;21.30;87.40
1447;DHT22;717;51.522;7.266;2022-07-06T01:25:31;21.30;87.50
1447;DHT22;717;51.522;7.266;2022-07-06T01:27:58;21.30;87.50
1447;DHT22;717;51.522;7.266;2022-07-06T01:30:24;21.30;87.50
1447;DHT22;717;51.522;7.266;2022-07-06T01:32:51;21.20;87.50
1447;DHT22;717;51.522;7.266;2022-07-06T01:35:18;21.20;87.70
1447;DHT22;717;51.522;7.266;2022-07-06T01:37:46;21.20;87.70
1447;DHT22;717;51.522;7.266;2022-07-06T01:40:13;21.20;87.80
1447;DHT22;717;51.522;7.266;2022-07-06T01:42:40;21.20;87.80
1447;DHT22;717;51.522;7.266;2022-07-06T01:45:08;21.10;87.90
1447;DHT22;717;51.522;7.266;2022-07-06T01:47:35;21.10;87.90
1447;DHT22;717;51.522;7.266;2022-07-06T01:50:04;21.10;87.90
1447;DHT22;717;51.522;7.266;2022-07-06T01:52:31;21.10;87.80
1447;DHT22;717;51.522;7.266;2022-07-06T01:54:59;21.10;88.40
1447;DHT22;717;51.522;7.266;2022-07-06T01:57:26;21.00;87.90
1447;DHT22;717;51.522;7.266;2022-07-06T01:59:53;21.00;88.10
1447;DHT22;717;51.522;7.266;2022-07-06T02:02:19;21.10;88.30
1447;DHT22;717;51.522;7.266;2022-07-06T02:04:46;21.00;88.20
1447;DHT22;717;51.522;7.266;2022-07-06T02:07:13;21.00;88.20
1447;DHT22;717;51.522;7.266;2022-07-06T02:09:39;21.00;88.30
1447;DHT22;717;51.522;7.266;2022-07-06T02:12:07;21.00;88.40
1447;DHT22;717;51.522;7.266;2022-07-06T02:14:34;21.00;89.20
1447;DHT22;717;51.522;7.266;2022-07-06T02:17:01;21.00;88.60
1447;DHT22;717;51.522;7.266;2022-07-06T02:19:28;21.00;88.60
1447;DHT22;717;51.522;7.266;2022-07-06T02:21:54;20.90;88.50
1447;DHT22;717;51.522;7.266;2022-07-06T02:24:21;20.90;88.60
1447;DHT22;717;51.522;7.266;2022-07-06T02:26:48;20.90;88.80
1447;DHT22;717;51.522;7.266;2022-07-06T02:29:16;20.90;88.80
1447;DHT22;717;51.522;7.266;2022-07-06T02:31:43;20.90;88.90
1447;DHT22;717;51.522;7.266;2022-07-06T02:34:09;20.80;88.70
1447;DHT22;717;51.522;7.266;2022-07-06T02:36:36;20.80;88.80
1447;DHT22;717;51.522;7.266;2022-07-06T02:39:03;20.80;88.70
1447;DHT22;717;51.522;7.266;2022-07-06T02:41:30;20.80;88.70
1447;DHT22;717;51.522;7.266;2022-07-06T02:43:56;20.70;88.70
1447;DHT22;717;51.522;7.266;2022-07-06T02:46:25;20.70;88.90
1447;DHT22;717;51.522;7.266;2022-07-06T02:48:52;20.70;89.00
1447;DHT22;717;51.522;7.266;2022-07-06T02:51:18;20.70;89.20
1447;DHT22;717;51.522;7.266;2022-07-06T02:53:45;20.70;89.20
1447;DHT22;717;51.522;7.266;2022-07-06T02:56:12;20.70;88.90
1447;DHT22;717;51.522;7.266;2022-07-06T02:58:39;20.60;89.00
1447;DHT22;717;51.522;7.266;2022-07-06T03:01:08;20.60;89.10
1447;DHT22;717;51.522;7.266;2022-07-06T03:03:36;20.60;89.20
1447;DHT22;717;51.522;7.266;2022-07-06T03:06:03;20.60;89.20
1447;DHT22;717;51.522;7.266;2022-07-06T03:08:29;20.50;89.20
1447;DHT22;717;51.522;7.266;2022-07-06T03:10:56;20.60;89.40
1447;DHT22;717;51.522;7.266;2022-07-06T03:13:23;20.50;89.50
1447;DHT22;717;51.522;7.266;2022-07-06T03:15:50;20.50;89.60
1447;DHT22;717;51.522;7.266;2022-07-06T03:18:16;20.50;89.60
1447;DHT22;717;51.522;7.266;2022-07-06T03:20:44;20.50;89.40
1447;DHT22;717;51.522;7.266;2022-07-06T03:23:11;20.40;89.70
1447;DHT22;717;51.522;7.266;2022-07-06T03:25:38;20.50;89.80
1447;DHT22;717;51.522;7.266;2022-07-06T03:28:04;20.50;89.90
1447;DHT22;717;51.522;7.266;2022-07-06T03:30:31;20.40;89.90
1447;DHT22;717;51.522;7.266;2022-07-06T03:32:57;20.40;89.90
1447;DHT22;717;51.522;7.266;2022-07-06T03:35:24;20.40;89.90
1447;DHT22;717;51.522;7.266;2022-07-06T03:37:52;20.40;90.00
1447;DHT22;717;51.522;7.266;2022-07-06T03:40:19;20.40;90.00
1447;DHT22;717;51.522;7.266;2022-07-06T03:42:46;20.40;90.10
1447;DHT22;717;51.522;7.266;2022-07-06T03:45:13;20.40;90.40
1447;DHT22;717;51.522;7.266;2022-07-06T03:47:40;20.40;90.20
1447;DHT22;717;51.522;7.266;2022-07-06T03:50:07;20.30;90.10
1447;DHT22;717;51.522;7.266;2022-07-06T03:52:35;20.30;90.20
1447;DHT22;717;51.522;7.266;2022-07-06T03:55:07;20.30;90.30
1447;DHT22;717;51.522;7.266;2022-07-06T03:57:34;20.30;90.30
1447;DHT22;717;51.522;7.266;2022-07-06T04:00:01;20.30;90.30
1447;DHT22;717;51.522;7.266;2022-07-06T04:02:27;20.20;90.40
1447;DHT22;717;51.522;7.266;2022-07-06T04:04:54;20.20;90.50
1447;DHT22;717;51.522;7.266;2022-07-06T04:07:21;20.20;90.40
1447;DHT22;717;51.522;7.266;2022-07-06T04:09:47;20.20;90.50
1447;DHT22;717;51.522;7.266;2022-07-06T04:12:15;20.10;90.50
1447;DHT22;717;51.522;7.266;2022-07-06T04:14:42;20.10;90.50
1447;DHT22;717;51.522;7.266;2022-07-06T04:17:09;20.00;90.60
1447;DHT22;717;51.522;7.266;2022-07-06T04:19:49;20.00;90.70
1447;DHT22;717;51.522;7.266;2022-07-06T04:22:16;19.90;90.80
1447;DHT22;717;51.522;7.266;2022-07-06T04:24:43;19.90;90.80
1447;DHT22;717;51.522;7.266;2022-07-06T04:27:10;20.00;90.90
1447;DHT22;717;51.522;7.266;2022-07-06T04:29:38;20.00;90.90
1447;DHT22;717;51.522;7.266;2022-07-06T04:32:06;20.00;91.00
1447;DHT22;717;51.522;7.266;2022-07-06T04:34:32;20.00;91.00
1447;DHT22;717;51.522;7.266;2022-07-06T04:36:59;20.00;91.00
1447;DHT22;717;51.522;7.266;2022-07-06T04:39:26;20.00;91.00
1447;DHT22;717;51.522;7.266;2022-07-06T04:41:53;20.00;91.10
1447;DHT22;717;51.522;7.266;2022-07-06T04:44:21;19.90;91.10
1447;DHT22;717;51.522;7.266;2022-07-06T04:46:50;19.90;91.20
1447;DHT22;717;51.522;7.266;2022-07-06T04:49:16;19.90;91.30
1447;DHT22;717;51.522;7.266;2022-07-06T04:51:43;19.90;91.30
1447;DHT22;717;51.522;7.266;2022-07-06T04:54:10;19.90;91.30
1447;DHT22;717;51.522;7.266;2022-07-06T04:56:36;19.90;91.30
1447;DHT22;717;51.522;7.266;2022-07-06T04:59:03;19.90;91.40
1447;DHT22;717;51.522;7.266;2022-07-06T05:01:30;19.90;91.40
1447;DHT22;717;51.522;7.266;2022-07-06T05:03:59;19.90;91.40
1447;DHT22;717;51.522;7.266;2022-07-06T05:06:25;20.00;91.40
1447;DHT22;717;51.522;7.266;2022-07-06T05:08:52;20.00;91.40
1447;DHT22;717;51.522;7.266;2022-07-06T05:11:19;20.00;91.40
1447;DHT22;717;51.522;7.266;2022-07-06T05:13:45;19.90;91.40
1447;DHT22;717;51.522;7.266;2022-07-06T05:16:12;20.00;91.50
1447;DHT22;717;51.522;7.266;2022-07-06T05:18:38;20.00;91.50
1447;DHT22;717;51.522;7.266;2022-07-06T05:21:06;19.90;91.50
1447;DHT22;717;51.522;7.266;2022-07-06T05:23:33;19.90;91.60
1447;DHT22;717;51.522;7.266;2022-07-06T05:26:00;19.90;91.70
1447;DHT22;717;51.522;7.266;2022-07-06T05:28:27;19.90;91.70
1447;DHT22;717;51.522;7.266;2022-07-06T05:30:53;19.90;91.80
1447;DHT22;717;51.522;7.266;2022-07-06T05:33:20;19.90;91.80
1447;DHT22;717;51.522;7.266;2022-07-06T05:35:46;19.90;91.80
1447;DHT22;717;51.522;7.266;2022-07-06T05:38:15;19.90;91.80
1447;DHT22;717;51.522;7.266;2022-07-06T05:40:41;19.80;91.90
1447;DHT22;717;51.522;7.266;2022-07-06T05:43:08;19.90;92.00
1447;DHT22;717;51.522;7.266;2022-07-06T05:45:35;19.90;92.00
1447;DHT22;717;51.522;7.266;2022-07-06T05:48:02;19.90;92.10
1447;DHT22;717;51.522;7.266;2022-07-06T05:50:46;19.90;92.10
1447;DHT22;717;51.522;7.266;2022-07-06T05:53:12;19.90;92.10
1447;DHT22;717;51.522;7.266;2022-07-06T05:55:41;19.90;92.20
1447;DHT22;717;51.522;7.266;2022-07-06T05:58:07;20.00;92.20
1447;DHT22;717;51.522;7.266;2022-07-06T06:00:34;20.00;92.20
1447;DHT22;717;51.522;7.266;2022-07-06T06:03:01;20.00;92.60
1447;DHT22;717;51.522;7.266;2022-07-06T06:05:27;20.00;92.30
1447;DHT22;717;51.522;7.266;2022-07-06T06:07:54;20.00;92.40
1447;DHT22;717;51.522;7.266;2022-07-06T06:10:21;20.00;92.40
1447;DHT22;717;51.522;7.266;2022-07-06T06:12:50;20.00;92.50
1447;DHT22;717;51.522;7.266;2022-07-06T06:15:17;20.00;92.60
1447;DHT22;717;51.522;7.266;2022-07-06T06:17:44;19.90;92.60
1447;DHT22;717;51.522;7.266;2022-07-06T06:20:13;19.90;92.70
1447;DHT22;717;51.522;7.266;2022-07-06T06:22:47;20.00;92.80
1447;DHT22;717;51.522;7.266;2022-07-06T06:25:15;20.00;92.80
1447;DHT22;717;51.522;7.266;2022-07-06T06:27:42;20.00;92.80
1447;DHT22;717;51.522;7.266;2022-07-06T06:30:11;20.00;92.80
1447;DHT22;717;51.522;7.266;2022-07-06T06:32:38;20.10;92.80
1447;DHT22;717;51.522;7.266;2022-07-06T06:35:05;20.10;92.80
1447;DHT22;717;51.522;7.266;2022-07-06T06:37:33;20.20;92.90
1447;DHT22;717;51.522;7.266;2022-07-06T06:40:00;20.20;92.80
1447;DHT22;717;51.522;7.266;2022-07-06T06:42:27;20.20;92.90
1447;DHT22;717;51.522;7.266;2022-07-06T06:44:53;20.20;92.80
1447;DHT22;717;51.522;7.266;2022-07-06T06:47:21;20.20;92.80
1447;DHT22;717;51.522;7.266;2022-07-06T06:49:48;20.30;92.80
1447;DHT22;717;51.522;7.266;2022-07-06T06:52:15;20.30;92.80
1447;DHT22;717;51.522;7.266;2022-07-06T06:54:41;20.30;92.70
1447;DHT22;717;51.522;7.266;2022-07-06T06:57:08;20.30;92.70
1447;DHT22;717;51.522;7.266;2022-07-06T06:59:35;20.30;92.70
1447;DHT22;717;51.522;7.266;2022-07-06T07:02:02;20.30;92.60
1447;DHT22;717;51.522;7.266;2022-07-06T07:04:30;20.30;92.60
1447;DHT22;717;51.522;7.266;2022-07-06T07:06:57;20.30;92.60
1447;DHT22;717;51.522;7.266;2022-07-06T07:09:24;20.40;92.60
1447;DHT22;717;51.522;7.266;2022-07-06T07:11:51;20.40;92.60
1447;DHT22;717;51.522;7.266;2022-07-06T07:14:17;20.40;92.60
1447;DHT22;717;51.522;7.266;2022-07-06T07:16:44;20.40;92.60
1447;DHT22;717;51.522;7.266;2022-07-06T07:19:11;20.40;92.50
1447;DHT22;717;51.522;7.266;2022-07-06T07:21:39;20.40;92.50
1447;DHT22;717;51.522;7.266;2022-07-06T07:24:06;20.40;92.50
1447;DHT22;717;51.522;7.266;2022-07-06T07:26:33;20.40;92.50
1447;DHT22;717;51.522;7.266;2022-07-06T07:29:00;20.40;92.40
1447;DHT22;717;51.522;7.266;2022-07-06T07:31:27;20.40;92.50
1447;DHT22;717;51.522;7.266;2022-07-06T07:33:53;20.40;92.40
1447;DHT22;717;51.522;7.266;2022-07-06T07:36:22;20.40;92.30
1447;DHT22;717;51.522;7.266;2022-07-06T07:38:50;20.50;92.30
1447;DHT22;717;51.522;7.266;2022-07-06T07:41:17;20.50;92.30
1447;DHT22;717;51.522;7.266;2022-07-06T07:43:43;20.50;92.20
1447;DHT22;717;51.522;7.266;2022-07-06T07:46:10;20.50;92.10
1447;DHT22;717;51.522;7.266;2022-07-06T07:48:37;20.50;92.00
1447;DHT22;717;51.522;7.266;2022-07-06T07:51:03;20.50;92.00
1447;DHT22;717;51.522;7.266;2022-07-06T07:53:30;20.60;92.00
1447;DHT22;717;51.522;7.266;2022-07-06T07:55:58;20.60;91.90
1447;DHT22;717;51.522;7.266;2022-07-06T07:58:25;20.60;91.80
1447;DHT22;717;51.522;7.266;2022-07-06T08:00:52;20.60;91.80
1447;DHT22;717;51.522;7.266;2022-07-06T08:03:19;20.60;91.70
1447;DHT22;717;51.522;7.266;2022-07-06T08:05:45;20.70;91.60
1447;DHT22;717;51.522;7.266;2022-07-06T08:08:13;20.70;91.50
1447;DHT22;717;51.522;7.266;2022-07-06T08:10:39;20.70;91.80
1447;DHT22;717;51.522;7.266;2022-07-06T08:13:07;20.70;91.40
1447;DHT22;717;51.522;7.266;2022-07-06T08:15:36;20.70;91.40
1447;DHT22;717;51.522;7.266;2022-07-06T08:18:03;20.80;91.20
1447;DHT22;717;51.522;7.266;2022-07-06T08:20:29;20.80;91.10
1447;DHT22;717;51.522;7.266;2022-07-06T08:22:56;20.80;91.00
1447;DHT22;717;51.522;7.266;2022-07-06T08:25:23;20.80;91.20
1447;DHT22;717;51.522;7.266;2022-07-06T08:27:49;20.90;90.80
1447;DHT22;717;51.522;7.266;2022-07-06T08:30:17;20.90;90.80
1447;DHT22;717;51.522;7.266;2022-07-06T08:32:44;20.90;90.60
1447;DHT22;717;51.522;7.266;2022-07-06T08:35:11;20.90;90.60
1447;DHT22;717;51.522;7.266;2022-07-06T08:37:38;20.90;90.40
1447;DHT22;717;51.522;7.266;2022-07-06T08:40:05;20.90;90.40
1447;DHT22;717;51.522;7.266;2022-07-06T08:42:34;20.90;90.20
1447;DHT22;717;51.522;7.266;2022-07-06T08:45:03;21.00;90.00
1447;DHT22;717;51.522;7.266;2022-07-06T08:47:32;21.00;89.50
1447;DHT22;717;51.522;7.266;2022-07-06T08:50:02;21.00;89.10
1447;DHT22;717;51.522;7.266;2022-07-06T08:52:30;21.00;89.10
1447;DHT22;717;51.522;7.266;2022-07-06T08:54:56;21.00;89.10
1447;DHT22;717;51.522;7.266;2022-07-06T08:57:24;21.00;89.10
1447;DHT22;717;51.522;7.266;2022-07-06T08:59:51;21.00;89.30
1447;DHT22;717;51.522;7.266;2022-07-06T09:02:19;21.00;89.20
1447;DHT22;717;51.522;7.266;2022-07-06T09:04:48;21.10;89.40
1447;DHT22;717;51.522;7.266;2022-07-06T09:07:17;21.10;89.30
1447;DHT22;717;51.522;7.266;2022-07-06T09:09:45;21.10;89.50
1447;DHT22;717;51.522;7.266;2022-07-06T09:12:12;21.10;89.80
1447;DHT22;717;51.522;7.266;2022-07-06T09:14:39;21.20;90.00
1447;DHT22;717;51.522;7.266;2022-07-06T09:17:06;21.20;90.00
1447;DHT22;717;51.522;7.266;2022-07-06T09:19:35;21.20;90.10
1447;DHT22;717;51.522;7.266;2022-07-06T09:22:03;21.20;89.20
1447;DHT22;717;51.522;7.266;2022-07-06T09:24:31;21.20;89.10
1447;DHT22;717;51.522;7.266;2022-07-06T09:26:58;21.20;89.00
1447;DHT22;717;51.522;7.266;2022-07-06T09:29:27;21.20;89.00
1447;DHT22;717;51.522;7.266;2022-07-06T09:31:58;21.20;88.50
1447;DHT22;717;51.522;7.266;2022-07-06T09:34:26;21.20;88.60
1447;DHT22;717;51.522;7.266;2022-07-06T09:37:07;21.30;88.80
1447;DHT22;717;51.522;7.266;2022-07-06T09:39:34;21.30;88.60
1447;DHT22;717;51.522;7.266;2022-07-06T09:42:02;21.30;88.20
1447;DHT22;717;51.522;7.266;2022-07-06T09:44:31;21.40;87.80
1447;DHT22;717;51.522;7.266;2022-07-06T09:46:59;21.40;87.60
1447;DHT22;717;51.522;7.266;2022-07-06T09:49:26;21.40;87.90
1447;DHT22;717;51.522;7.266;2022-07-06T09:51:55;21.50;87.70
1447;DHT22;717;51.522;7.266;2022-07-06T09:54:24;21.50;87.60
1447;DHT22;717;51.522;7.266;2022-07-06T09:56:52;21.60;88.10
1447;DHT22;717;51.522;7.266;2022-07-06T09:59:20;21.60;87.60
1447;DHT22;717;51.522;7.266;2022-07-06T10:01:51;21.60;87.70
1447;DHT22;717;51.522;7.266;2022-07-06T10:04:18;21.60;87.80
1447;DHT22;717;51.522;7.266;2022-07-06T10:06:45;21.60;87.80
1447;DHT22;717;51.522;7.266;2022-07-06T10:09:13;21.60;87.80
1447;DHT22;717;51.522;7.266;2022-07-06T10:11:44;21.60;87.90
1447;DHT22;717;51.522;7.266;2022-07-06T10:14:12;21.70;87.70
1447;DHT22;717;51.522;7.266;2022-07-06T10:16:41;21.70;87.80
1447;DHT22;717;51.522;7.266;2022-07-06T10:19:09;21.70;87.80
1447;DHT22;717;51.522;7.266;2022-07-06T10:21:36;21.70;87.40
1447;DHT22;717;51.522;7.266;2022-07-06T10:24:05;21.70;87.50
1447;DHT22;717;51.522;7.266;2022-07-06T10:26:32;21.70;87.80
1447;DHT22;717;51.522;7.266;2022-07-06T10:29:01;21.70;87.80
1447;DHT22;717;51.522;7.266;2022-07-06T10:31:29;21.80;87.20
1447;DHT22;717;51.522;7.266;2022-07-06T10:33:57;21.80;87.40
1447;DHT22;717;51.522;7.266;2022-07-06T10:36:26;21.70;86.80
1447;DHT22;717;51.522;7.266;2022-07-06T10:38:53;21.70;86.90
1447;DHT22;717;51.522;7.266;2022-07-06T10:41:30;21.80;86.90
1447;DHT22;717;51.522;7.266;2022-07-06T10:43:56;21.80;87.10
1447;DHT22;717;51.522;7.266;2022-07-06T10:46:28;21.90;87.30
1447;DHT22;717;51.522;7.266;2022-07-06T10:48:56;21.90;87.10
1447;DHT22;717;51.522;7.266;2022-07-06T10:51:25;22.00;86.90
1447;DHT22;717;51.522;7.266;2022-07-06T10:53:56;22.00;86.30
1447;DHT22;717;51.522;7.266;2022-07-06T10:56:32;22.00;85.40
1447;DHT22;717;51.522;7.266;2022-07-06T10:59:02;22.00;85.40
1447;DHT22;717;51.522;7.266;2022-07-06T11:01:30;22.00;85.00
1447;DHT22;717;51.522;7.266;2022-07-06T11:04:07;21.90;85.30
1447;DHT22;717;51.522;7.266;2022-07-06T11:06:36;22.00;85.20
1447;DHT22;717;51.522;7.266;2022-07-06T11:09:04;22.00;85.00
1447;DHT22;717;51.522;7.266;2022-07-06T11:11:39;21.90;85.40
1447;DHT22;717;51.522;7.266;2022-07-06T11:14:08;22.00;85.70
1447;DHT22;717;51.522;7.266;2022-07-06T11:16:38;22.00;85.60
1447;DHT22;717;51.522;7.266;2022-07-06T11:19:08;22.00;85.30
1447;DHT22;717;51.522;7.266;2022-07-06T11:21:38;22.00;84.80
1447;DHT22;717;51.522;7.266;2022-07-06T11:24:06;22.00;84.70
1447;DHT22;717;51.522;7.266;2022-07-06T11:26:34;22.10;84.80
1447;DHT22;717;51.522;7.266;2022-07-06T11:29:03;22.10;84.50
1447;DHT22;717;51.522;7.266;2022-07-06T11:31:30;22.10;84.90
1447;DHT22;717;51.522;7.266;2022-07-06T11:33:58;22.10;85.20
1447;DHT22;717;51.522;7.266;2022-07-06T11:36:24;22.20;84.80
1447;DHT22;717;51.522;7.266;2022-07-06T11:38:51;22.20;84.90
1447;DHT22;717;51.522;7.266;2022-07-06T11:41:18;22.30;84.00
1447;DHT22;717;51.522;7.266;2022-07-06T11:43:46;22.30;83.20
1447;DHT22;717;51.522;7.266;2022-07-06T11:46:26;22.30;84.20
1447;DHT22;717;51.522;7.266;2022-07-06T11:48:54;22.30;84.20
1447;DHT22;717;51.522;7.266;2022-07-06T11:51:24;22.40;83.90
1447;DHT22;717;51.522;7.266;2022-07-06T11:53:52;22.40;83.90
1447;DHT22;717;51.522;7.266;2022-07-06T11:56:19;22.50;84.20
1447;DHT22;717;51.522;7.266;2022-07-06T11:58:49;22.50;83.90
1447;DHT22;717;51.522;7.266;2022-07-06T12:01:16;22.60;83.70
1447;DHT22;717;51.522;7.266;2022-07-06T12:03:43;22.60;83.80
1447;DHT22;717;51.522;7.266;2022-07-06T12:06:15;22.60;82.50
1447;DHT22;717;51.522;7.266;2022-07-06T12:08:45;22.60;82.50
1447;DHT22;717;51.522;7.266;2022-07-06T12:11:22;22.60;82.60
1447;DHT22;717;51.522;7.266;2022-07-06T12:13:51;22.70;82.70
1447;DHT22;717;51.522;7.266;2022-07-06T12:16:18;22.70;82.80
1447;DHT22;717;51.522;7.266;2022-07-06T12:18:46;22.70;82.70
1447;DHT22;717;51.522;7.266;2022-07-06T12:21:15;22.80;83.00
1447;DHT22;717;51.522;7.266;2022-07-06T12:23:46;22.90;83.50
1447;DHT22;717;51.522;7.266;2022-07-06T12:26:14;22.90;83.80
1447;DHT22;717;51.522;7.266;2022-07-06T12:28:41;23.00;83.00
1447;DHT22;717;51.522;7.266;2022-07-06T12:31:09;23.10;83.00
1447;DHT22;717;51.522;7.266;2022-07-06T12:33:36;23.10;82.80
1447;DHT22;717;51.522;7.266;2022-07-06T12:36:10;23.20;82.10
1447;DHT22;717;51.522;7.266;2022-07-06T12:38:46;23.30;81.60
1447;DHT22;717;51.522;7.266;2022-07-06T12:41:27;23.30;80.90
1447;DHT22;717;51.522;7.266;2022-07-06T12:44:01;23.40;80.70
1447;DHT22;717;51.522;7.266;2022-07-06T12:46:30;23.40;80.00
1447;DHT22;717;51.522;7.266;2022-07-06T12:48:58;23.50;80.40
1447;DHT22;717;51.522;7.266;2022-07-06T12:51:25;23.50;79.70
1447;DHT22;717;51.522;7.266;2022-07-06T12:54:11;23.60;79.90
1447;DHT22;717;51.522;7.266;2022-07-06T12:56:59;23.60;79.50
1447;DHT22;717;51.522;7.266;2022-07-06T12:59:26;23.60;79.10
1447;DHT22;717;51.522;7.266;2022-07-06T13:01:53;23.60;79.70
1447;DHT22;717;51.522;7.266;2022-07-06T13:04:22;23.70;79.50
1447;DHT22;717;51.522;7.266;2022-07-06T13:06:49;23.70;79.00
1447;DHT22;717;51.522;7.266;2022-07-06T13:09:18;23.70;79.10
1447;DHT22;717;51.522;7.266;2022-07-06T13:11:45;23.70;79.00
1447;DHT22;717;51.522;7.266;2022-07-06T13:14:13;23.80;79.40
1447;DHT22;717;51.522;7.266;2022-07-06T13:16:39;23.80;79.70
1447;DHT22;717;51.522;7.266;2022-07-06T13:19:06;23.80;80.40
1447;DHT22;717;51.522;7.266;2022-07-06T13:21:33;23.90;78.90
1447;DHT22;717;51.522;7.266;2022-07-06T13:23:59;23.90;78.10
1447;DHT22;717;51.522;7.266;2022-07-06T13:26:27;23.90;78.00
1447;DHT22;717;51.522;7.266;2022-07-06T13:28:54;23.90;78.30
1447;DHT22;717;51.522;7.266;2022-07-06T13:31:22;23.90;78.90
1447;DHT22;717;51.522;7.266;2022-07-06T13:33:49;24.00;78.90
1447;DHT22;717;51.522;7.266;2022-07-06T13:36:15;24.00;78.40
1447;DHT22;717;51.522;7.266;2022-07-06T13:38:42;24.00;78.40
1447;DHT22;717;51.522;7.266;2022-07-06T13:41:09;24.00;78.10
1447;DHT22;717;51.522;7.266;2022-07-06T13:43:37;24.00;78.10
1447;DHT22;717;51.522;7.266;2022-07-06T13:46:04;24.00;78.00
1447;DHT22;717;51.522;7.266;2022-07-06T13:48:31;24.00;77.80
1447;DHT22;717;51.522;7.266;2022-07-06T13:50:59;24.00;78.00
1447;DHT22;717;51.522;7.266;2022-07-06T13:53:26;24.00;78.50
1447;DHT22;717;51.522;7.266;2022-07-06T13:55:52;24.10;78.20
1447;DHT22;717;51.522;7.266;2022-07-06T13:58:20;24.00;77.80
1447;DHT22;717;51.522;7.266;2022-07-06T14:00:48;24.10;77.40
1447;DHT22;717;51.522;7.266;2022-07-06T14:03:14;24.10;77.10
1447;DHT22;717;51.522;7.266;2022-07-06T14:05:41;24.10;77.00
1447;DHT22;717;51.522;7.266;2022-07-06T14:08:08;24.10;76.50
1447;DHT22;717;51.522;7.266;2022-07-06T14:10:35;24.10;76.40
1447;DHT22;717;51.522;7.266;2022-07-06T14:13:01;24.00;76.50
1447;DHT22;717;51.522;7.266;2022-07-06T14:15:28;24.10;76.70
1447;DHT22;717;51.522;7.266;2022-07-06T14:17:57;24.00;76.30
1447;DHT22;717;51.522;7.266;2022-07-06T14:20:24;24.10;76.20
1447;DHT22;717;51.522;7.266;2022-07-06T14:22:50;24.00;76.20
1447;DHT22;717;51.522;7.266;2022-07-06T14:25:17;24.00;76.20
1447;DHT22;717;51.522;7.266;2022-07-06T14:27:44;24.00;76.30
1447;DHT22;717;51.522;7.266;2022-07-06T14:30:11;24.10;76.20
1447;DHT22;717;51.522;7.266;2022-07-06T14:32:38;24.00;76.00
1447;DHT22;717;51.522;7.266;2022-07-06T14:35:07;24.00;76.00
1447;DHT22;717;51.522;7.266;2022-07-06T14:37:33;24.00;76.60
1447;DHT22;717;51.522;7.266;2022-07-06T14:40:00;24.10;76.10
1447;DHT22;717;51.522;7.266;2022-07-06T14:42:27;24.00;75.90
1447;DHT22;717;51.522;7.266;2022-07-06T14:44:53;24.10;76.00
1447;DHT22;717;51.522;7.266;2022-07-06T14:47:20;24.10;76.40
1447;DHT22;717;51.522;7.266;2022-07-06T14:49:47;24.10;76.50
1447;DHT22;717;51.522;7.266;2022-07-06T14:52:15;24.10;76.70
1447;DHT22;717;51.522;7.266;2022-07-06T14:54:42;24.10;76.70
1447;DHT22;717;51.522;7.266;2022-07-06T14:57:08;24.10;76.70
1447;DHT22;717;51.522;7.266;2022-07-06T14:59:35;24.10;76.40
1447;DHT22;717;51.522;7.266;2022-07-06T15:02:02;24.10;76.50
1447;DHT22;717;51.522;7.266;2022-07-06T15:04:29;24.10;76.50
1447;DHT22;717;51.522;7.266;2022-07-06T15:06:55;24.10;77.00
1447;DHT22;717;51.522;7.266;2022-07-06T15:09:24;24.10;76.90
1447;DHT22;717;51.522;7.266;2022-07-06T15:11:52;24.00;76.30
1447;DHT22;717;51.522;7.266;2022-07-06T15:14:19;24.00;76.20
1447;DHT22;717;51.522;7.266;2022-07-06T15:16:46;24.00;76.50
1447;DHT22;717;51.522;7.266;2022-07-06T15:19:13;24.10;76.40
1447;DHT22;717;51.522;7.266;2022-07-06T15:21:40;24.10;76.20
1447;DHT22;717;51.522;7.266;2022-07-06T15:24:07;24.10;76.60
1447;DHT22;717;51.522;7.266;2022-07-06T15:26:35;24.10;76.80
1447;DHT22;717;51.522;7.266;2022-07-06T15:29:02;24.10;76.60
1447;DHT22;717;51.522;7.266;2022-07-06T15:31:29;24.10;76.70
1447;DHT22;717;51.522;7.266;2022-07-06T15:33:56;24.10;77.10
1447;DHT22;717;51.522;7.266;2022-07-06T15:36:23;24.10;77.10
1447;DHT22;717;51.522;7.266;2022-07-06T15:38:50;24.20;77.10
1447;DHT22;717;51.522;7.266;2022-07-06T15:41:17;24.20;76.90
1447;DHT22;717;51.522;7.266;2022-07-06T15:43:45;24.30;76.90
1447;DHT22;717;51.522;7.266;2022-07-06T15:46:11;24.30;77.00
1447;DHT22;717;51.522;7.266;2022-07-06T15:48:38;24.30;76.80
1447;DHT22;717;51.522;7.266;2022-07-06T15:51:05;24.40;76.70
1447;DHT22;717;51.522;7.266;2022-07-06T15:53:32;24.40;76.20
1447;DHT22;717;51.522;7.266;2022-07-06T15:55:59;24.40;76.00
1447;DHT22;717;51.522;7.266;2022-07-06T15:58:26;24.30;75.40
1447;DHT22;717;51.522;7.266;2022-07-06T16:00:54;24.30;75.70
1447;DHT22;717;51.522;7.266;2022-07-06T16:03:21;24.30;75.40
1447;DHT22;717;51.522;7.266;2022-07-06T16:05:48;24.30;75.60
1447;DHT22;717;51.522;7.266;2022-07-06T16:08:15;24.30;75.50
1447;DHT22;717;51.522;7.266;2022-07-06T16:10:41;24.30;75.80
1447;DHT22;717;51.522;7.266;2022-07-06T16:13:08;24.30;75.40
1447;DHT22;717;51.522;7.266;2022-07-06T16:15:35;24.40;75.30
1447;DHT22;717;51.522;7.266;2022-07-06T16:18:03;24.30;74.90
1447;DHT22;717;51.522;7.266;2022-07-06T16:20:29;24.40;75.00